createdAt,value
2023-01-21T00:01:33.032Z,5.17
2023-01-21T00:06:37.084Z,5.53
2023-01-21T00:11:40.454Z,8.27
2023-01-21T00:16:45.330Z,6.40
2023-01-21T00:21:48.574Z,6.47
2023-01-21T00:26:51.955Z,8.73
2023-01-21T00:31:56.741Z,10.10
2023-01-21T00:37:00.089Z,7.73
2023-01-21T00:42:04.516Z,8.17
2023-01-21T00:47:09.169Z,7.87
2023-01-21T00:52:12.449Z,7.83
2023-01-21T00:57:16.335Z,5.17
2023-01-21T01:02:21.478Z,7.33
2023-01-21T01:07:25.006Z,7.13
2023-01-21T01:12:29.602Z,7.73
2023-01-21T01:17:34.443Z,6.13
2023-01-21T01:22:37.843Z,4.70
2023-01-21T01:27:41.165Z,5.17
2023-01-21T01:32:46.278Z,6.20
2023-01-21T01:37:49.605Z,5.73
2023-01-21T01:42:53.032Z,4.97
2023-01-21T01:48:00.104Z,5.87
2023-01-21T01:53:03.465Z,5.80
2023-01-21T01:58:07.991Z,6.33
2023-01-21T02:03:30.637Z,9.17
2023-01-21T02:08:36.973Z,8.07
2023-01-21T02:13:41.663Z,7.87
2023-01-21T02:18:49.134Z,8.30
2023-01-21T02:24:00.755Z,7.97
2023-01-21T02:29:11.567Z,6.20
2023-01-21T02:34:18.845Z,7.10
2023-01-21T02:39:26.191Z,6.37
2023-01-21T02:44:33.630Z,6.60
2023-01-21T02:49:41.167Z,5.83
2023-01-21T02:54:51.998Z,6.40
2023-01-21T02:59:56.917Z,8.43
2023-01-21T03:05:05.572Z,9.63
2023-01-21T03:10:12.301Z,10.27
2023-01-21T03:15:39.024Z,12.30
2023-01-21T03:20:45.572Z,15.17
2023-01-21T03:25:49.939Z,18.43
2023-01-21T03:30:56.205Z,16.20
2023-01-21T03:36:03.049Z,13.27
2023-01-21T03:41:08.839Z,12.97
2023-01-21T03:46:16.841Z,14.37
2023-01-21T03:51:23.627Z,15.17
2023-01-21T03:56:26.966Z,13.23
2023-01-21T04:01:30.374Z,15.97
2023-01-21T04:06:36.172Z,20.33
2023-01-21T04:11:39.593Z,16.60
2023-01-21T04:16:43.040Z,17.10
2023-01-21T04:21:48.309Z,14.97
2023-01-21T04:26:52.284Z,21.50
2023-01-21T04:31:55.790Z,16.13
2023-01-21T04:37:00.656Z,15.63
2023-01-21T04:42:03.887Z,16.10
2023-01-21T04:47:07.233Z,13.43
2023-01-21T04:52:11.964Z,13.70
2023-01-21T04:57:15.240Z,14.50
2023-01-21T05:02:18.701Z,15.03
2023-01-21T05:07:23.526Z,13.23
2023-01-21T05:12:26.970Z,13.07
2023-01-21T05:17:30.305Z,13.23
2023-01-21T05:22:34.958Z,17.30
2023-01-21T05:27:38.339Z,13.87
2023-01-21T05:32:42.053Z,14.07
2023-01-21T05:37:47.861Z,14.87
2023-01-21T05:42:51.122Z,16.83
2023-01-21T05:47:55.101Z,13.60
2023-01-21T05:52:59.854Z,15.70
2023-01-21T05:58:03.333Z,13.80
2023-01-21T06:03:07.062Z,15.17
2023-01-21T06:08:11.967Z,16.03
2023-01-21T06:13:15.788Z,16.57
2023-01-21T06:18:19.338Z,14.93
2023-01-21T06:23:24.173Z,16.73
2023-01-21T06:28:28.387Z,16.63
2023-01-21T06:33:33.143Z,15.07
2023-01-21T06:38:37.803Z,16.80
2023-01-21T06:43:41.197Z,14.73
2023-01-21T06:48:46.288Z,15.53
2023-01-21T06:53:50.915Z,15.53
2023-01-21T06:58:54.504Z,15.67
2023-01-21T07:03:57.832Z,15.50
2023-01-21T07:09:03.865Z,15.03
2023-01-21T07:14:07.196Z,14.47
2023-01-21T07:19:10.532Z,13.60
2023-01-21T07:24:15.149Z,15.80
2023-01-21T07:29:18.634Z,14.13
2023-01-21T07:34:22.203Z,14.10
2023-01-21T07:39:27.054Z,14.67
2023-01-21T07:44:30.301Z,14.70
2023-01-21T07:49:33.856Z,15.57
2023-01-21T07:54:38.625Z,14.47
2023-01-21T07:59:42.311Z,16.00
2023-01-21T08:04:45.642Z,15.33
2023-01-21T08:09:50.236Z,14.60
2023-01-21T08:14:53.894Z,13.70
2023-01-21T08:19:57.435Z,15.37
2023-01-21T08:25:02.349Z,15.33
2023-01-21T08:30:06.193Z,15.87
2023-01-21T08:35:10.113Z,15.50
2023-01-21T08:40:15.551Z,15.40
2023-01-21T08:45:19.189Z,14.37
2023-01-21T08:50:23.324Z,15.03
2023-01-21T08:55:28.224Z,14.13
2023-01-21T09:00:31.666Z,14.63
2023-01-21T09:05:35.184Z,13.27
2023-01-21T09:10:57.805Z,15.50
2023-01-21T09:16:01.447Z,14.80
2023-01-21T09:21:05.626Z,14.67
2023-01-21T09:26:14.240Z,13.40
2023-01-21T09:31:18.637Z,11.20
2023-01-21T09:36:22.966Z,12.30
2023-01-21T09:41:29.999Z,11.23
2023-01-21T09:46:36.369Z,12.50
2023-01-21T09:51:44.418Z,11.17
2023-01-21T09:57:02.888Z,11.03
2023-01-21T10:02:15.666Z,13.50
2023-01-21T10:07:20.607Z,11.30
2023-01-21T10:12:29.018Z,10.33
2023-01-21T10:17:41.387Z,10.73
2023-01-21T10:22:47.349Z,12.07
2023-01-21T10:27:50.688Z,10.33
2023-01-21T10:32:56.513Z,13.07
2023-01-21T10:38:04.985Z,9.97
2023-01-21T10:43:09.934Z,11.10
2023-01-21T10:48:16.992Z,10.53
2023-01-21T10:53:24.805Z,11.63
2023-01-21T10:58:30.725Z,12.67
2023-01-21T11:03:39.051Z,9.43
2023-01-21T11:08:44.798Z,10.53
2023-01-21T11:13:48.272Z,10.77
2023-01-21T11:18:52.908Z,11.73
2023-01-21T11:23:57.123Z,11.37
2023-01-21T11:29:10.916Z,10.57
2023-01-21T11:34:17.134Z,10.67
2023-01-21T11:39:24.020Z,11.23
2023-01-21T11:44:27.314Z,11.63
2023-01-21T11:49:32.927Z,9.73
2023-01-21T11:54:39.235Z,10.93
2023-01-21T11:59:46.245Z,9.47
2023-01-21T12:04:52.309Z,10.33
2023-01-21T12:10:02.728Z,9.57
2023-01-21T12:15:13.524Z,10.03
2023-01-21T12:20:24.714Z,9.43
2023-01-21T12:25:38.364Z,9.50
2023-01-21T12:30:46.190Z,8.60
2023-01-21T12:35:52.874Z,9.80
2023-01-21T12:40:59.169Z,10.00
2023-01-21T12:46:05.413Z,8.77
2023-01-21T12:51:12.006Z,9.97
2023-01-21T12:56:21.093Z,9.23
2023-01-21T13:01:37.255Z,9.97
2023-01-21T13:06:53.681Z,9.27
2023-01-21T13:12:00.013Z,10.57
2023-01-21T13:17:04.745Z,8.43
2023-01-21T13:22:11.318Z,7.43
2023-01-21T13:27:17.763Z,8.07
2023-01-21T13:32:28.657Z,7.73
2023-01-21T13:37:37.363Z,6.60
2023-01-21T13:42:45.710Z,7.77
2023-01-21T13:47:56.536Z,8.23
2023-01-21T13:53:10.697Z,7.30
2023-01-21T13:58:14.900Z,7.37
2023-01-21T14:03:23.013Z,6.50
2023-01-21T14:08:29.889Z,5.93
2023-01-21T14:13:51.995Z,5.47
2023-01-21T14:19:04.301Z,5.87
2023-01-21T14:24:22.456Z,6.20
2023-01-21T14:29:32.869Z,6.80
2023-01-21T14:34:41.905Z,7.40
2023-01-21T14:39:50.984Z,6.17
2023-01-21T14:45:05.056Z,6.53
2023-01-21T14:50:09.360Z,7.47
2023-01-21T14:55:36.612Z,6.27
2023-01-21T15:00:46.270Z,5.73
2023-01-21T15:05:52.222Z,6.20
2023-01-21T15:10:59.661Z,6.17
2023-01-21T15:16:13.282Z,5.93
2023-01-21T15:21:35.999Z,6.73
2023-01-21T15:26:42.305Z,7.27
2023-01-21T15:31:47.233Z,7.13
2023-01-21T15:36:57.240Z,8.47
2023-01-21T15:42:13.116Z,9.50
2023-01-21T15:47:38.131Z,7.63
2023-01-21T15:52:50.656Z,9.00
2023-01-21T15:57:58.685Z,5.63
2023-01-21T16:03:06.066Z,7.57
2023-01-21T16:08:15.186Z,8.63
2023-01-21T16:13:23.270Z,7.27
2023-01-21T16:18:31.120Z,7.07
2023-01-21T16:23:38.358Z,7.50
2023-01-21T16:28:43.621Z,6.80
2023-01-21T16:33:48.548Z,7.53
2023-01-21T16:38:51.956Z,7.07
2023-01-21T16:43:56.847Z,6.20
2023-01-21T16:49:01.992Z,8.23
2023-01-21T16:54:24.145Z,7.30
2023-01-21T16:59:29.679Z,6.30
2023-01-21T17:04:34.354Z,8.60
2023-01-21T17:09:38.112Z,7.03
2023-01-21T17:14:41.481Z,6.70
2023-01-21T17:19:46.130Z,6.90
2023-01-21T17:25:00.669Z,7.27
2023-01-21T17:30:22.908Z,8.60
2023-01-21T17:35:28.568Z,7.27
2023-01-21T17:40:33.388Z,7.90
2023-01-21T17:45:38.037Z,8.27
2023-01-21T17:50:47.606Z,8.30
2023-01-21T17:55:59.267Z,9.57
2023-01-21T18:01:03.130Z,8.83
2023-01-21T18:06:14.166Z,8.60
2023-01-21T18:11:18.534Z,13.43
2023-01-21T18:16:21.777Z,9.67
2023-01-21T18:21:26.478Z,11.43
2023-01-21T18:26:31.221Z,27.40
2023-01-21T18:31:34.737Z,8.60
2023-01-21T18:36:40.201Z,9.17
2023-01-21T18:41:43.607Z,9.53
2023-01-21T18:46:48.080Z,9.10
2023-01-21T18:51:53.093Z,9.07
2023-01-21T18:56:56.581Z,12.30
2023-01-21T19:02:00.341Z,8.97
2023-01-21T19:07:05.567Z,13.87
2023-01-21T19:12:10.597Z,8.87
2023-01-21T19:17:14.508Z,9.17
2023-01-21T19:22:19.208Z,10.13
2023-01-21T19:27:24.033Z,9.40
2023-01-21T19:32:27.570Z,9.43
2023-01-21T19:37:32.413Z,9.50
2023-01-21T19:42:35.685Z,9.80
2023-01-21T19:47:41.490Z,12.87
2023-01-21T19:52:46.437Z,11.47
2023-01-21T19:57:53.928Z,11.70
2023-01-21T20:02:57.358Z,12.73
2023-01-21T20:08:02.603Z,10.93
2023-01-21T20:13:07.112Z,10.20
2023-01-21T20:18:14.111Z,10.63
2023-01-21T20:23:19.522Z,10.40
2023-01-21T20:28:24.198Z,9.93
2023-01-21T20:33:27.785Z,15.97
2023-01-21T20:38:33.057Z,9.87
2023-01-21T20:43:36.423Z,10.27
2023-01-21T20:48:40.779Z,8.97
2023-01-21T20:53:45.606Z,9.20
2023-01-21T20:58:49.091Z,9.40
2023-01-21T21:03:52.899Z,9.03
2023-01-21T21:08:57.738Z,10.00
2023-01-21T21:14:01.997Z,9.43
2023-01-21T21:19:05.297Z,9.07
2023-01-21T21:24:10.171Z,8.77
2023-01-21T21:29:14.278Z,9.50
2023-01-21T21:34:18.363Z,8.87
2023-01-21T21:39:23.206Z,9.10
2023-01-21T21:44:26.462Z,9.30
2023-01-21T21:49:30.468Z,8.87
2023-01-21T21:54:35.143Z,7.93
2023-01-21T21:59:38.567Z,9.20
2023-01-21T22:04:41.907Z,7.67
2023-01-21T22:09:46.522Z,8.60
2023-01-21T22:14:49.691Z,9.80
2023-01-21T22:19:53.165Z,8.77
2023-01-21T22:24:58.106Z,8.93
2023-01-21T22:30:01.693Z,8.00
2023-01-21T22:35:05.229Z,8.40
2023-01-21T22:40:11.820Z,9.37
2023-01-21T22:45:15.430Z,8.50
2023-01-21T22:50:18.826Z,8.93
2023-01-21T22:55:23.720Z,8.50
2023-01-21T23:00:35.437Z,8.37
2023-01-21T23:05:38.840Z,7.80
2023-01-21T23:10:43.787Z,8.70
2023-01-21T23:15:48.131Z,8.70
2023-01-21T23:20:51.508Z,7.77
2023-01-21T23:25:56.309Z,8.03
2023-01-21T23:30:59.575Z,8.03
2023-01-21T23:36:03.170Z,7.90
2023-01-21T23:41:09.572Z,8.43
2023-01-21T23:46:16.394Z,7.93
2023-01-21T23:51:20.281Z,8.53
2023-01-21T23:56:25.743Z,8.80
